createdAt,value
2022-08-14T00:02:05.269Z,100.00
2022-08-14T00:04:44.756Z,100.00
2022-08-14T00:07:25.042Z,100.00
2022-08-14T00:10:51.844Z,100.00
2022-08-14T00:13:07.281Z,100.00
2022-08-14T00:15:44.098Z,100.00
2022-08-14T00:18:30.966Z,100.00
2022-08-14T00:24:13.932Z,100.00
2022-08-14T00:26:55.786Z,100.00
2022-08-14T00:29:27.403Z,100.00
2022-08-14T00:32:50.311Z,100.00
2022-08-14T00:34:57.713Z,100.00
2022-08-14T00:37:32.193Z,100.00
2022-08-14T00:40:27.366Z,100.00
2022-08-14T00:42:56.688Z,100.00
2022-08-14T00:45:27.887Z,100.00
2022-08-14T00:50:47.434Z,100.00
2022-08-14T00:53:22.825Z,100.00
2022-08-14T00:56:07.072Z,100.00
2022-08-14T00:58:44.984Z,100.00
2022-08-14T01:01:20.525Z,100.00
2022-08-14T01:03:55.729Z,100.00
2022-08-14T01:06:34.505Z,100.00
2022-08-14T01:09:14.885Z,100.00
2022-08-14T01:11:45.098Z,100.00
2022-08-14T01:14:31.589Z,100.00
2022-08-14T01:17:03.754Z,100.00
2022-08-14T01:19:50.033Z,100.00
2022-08-14T01:22:31.488Z,100.00
2022-08-14T01:25:11.339Z,100.00
2022-08-14T01:27:56.726Z,100.00
2022-08-14T01:30:28.740Z,100.00
2022-08-14T01:33:10.395Z,100.00
2022-08-14T01:36:05.127Z,100.00
2022-08-14T01:38:39.883Z,100.00
2022-08-14T01:41:31.666Z,100.00
2022-08-14T01:44:32.350Z,100.00
2022-08-14T01:47:21.381Z,100.00
2022-08-14T01:50:01.208Z,100.00
2022-08-14T01:52:58.664Z,100.00
2022-08-14T01:55:32.585Z,100.00
2022-08-14T01:58:29.610Z,100.00
2022-08-14T02:01:00.543Z,100.00
2022-08-14T02:03:40.312Z,100.00
2022-08-14T02:06:32.163Z,100.00
2022-08-14T02:09:19.150Z,100.00
2022-08-14T02:12:02.883Z,100.00
2022-08-14T02:14:37.808Z,100.00
2022-08-14T02:17:14.367Z,100.00
2022-08-14T02:19:48.293Z,100.00
2022-08-14T02:22:28.679Z,100.00
2022-08-14T02:25:10.785Z,100.00
2022-08-14T02:28:22.668Z,100.00
2022-08-14T02:30:38.233Z,100.00
2022-08-14T02:33:23.681Z,100.00
2022-08-14T02:36:45.972Z,100.00
2022-08-14T02:38:56.513Z,100.00
2022-08-14T02:41:36.648Z,100.00
2022-08-14T02:44:30.012Z,100.00
2022-08-14T02:47:07.107Z,100.00
2022-08-14T02:49:50.564Z,100.00
2022-08-14T02:52:26.863Z,100.00
2022-08-14T02:55:20.493Z,100.00
2022-08-14T02:58:02.913Z,100.00
2022-08-14T03:00:40.553Z,100.00
2022-08-14T03:03:14.353Z,100.00
2022-08-14T03:05:50.237Z,100.00
2022-08-14T03:08:34.774Z,100.00
2022-08-14T03:11:15.657Z,100.00
2022-08-14T03:13:55.863Z,100.00
2022-08-14T03:16:35.973Z,100.00
2022-08-14T03:19:14.089Z,100.00
2022-08-14T03:21:53.120Z,100.00
2022-08-14T03:24:23.673Z,100.00
2022-08-14T03:26:57.719Z,100.00
2022-08-14T03:29:40.733Z,100.00
2022-08-14T03:32:30.389Z,100.00
2022-08-14T03:35:09.592Z,100.00
2022-08-14T03:39:10.691Z,100.00
2022-08-14T03:40:45.736Z,100.00
2022-08-14T03:43:18.422Z,100.00
2022-08-14T03:45:54.794Z,100.00
2022-08-14T03:51:09.394Z,100.00
2022-08-14T03:53:46.592Z,100.00
2022-08-14T03:56:29.573Z,100.00
2022-08-14T03:59:08.133Z,100.00
2022-08-14T04:01:57.925Z,100.00
2022-08-14T04:04:33.743Z,100.00
2022-08-14T04:07:13.166Z,100.00
2022-08-14T04:09:46.634Z,100.00
2022-08-14T04:12:26.462Z,100.00
2022-08-14T04:15:11.849Z,100.00
2022-08-14T04:17:55.777Z,100.00
2022-08-14T04:20:30.820Z,100.00
2022-08-14T04:23:23.286Z,100.00
2022-08-14T04:25:59.369Z,100.00
2022-08-14T04:28:58.794Z,100.00
2022-08-14T04:32:57.683Z,100.00
2022-08-14T04:34:27.906Z,100.00
2022-08-14T04:37:24.879Z,100.00
2022-08-14T04:40:17.571Z,100.00
2022-08-14T04:43:05.730Z,100.00
2022-08-14T04:45:52.305Z,100.00
2022-08-14T04:48:36.789Z,100.00
2022-08-14T04:51:20.651Z,100.00
2022-08-14T04:54:08.468Z,100.00
2022-08-14T04:56:40.641Z,100.00
2022-08-14T04:59:16.868Z,100.00
2022-08-14T05:01:57.361Z,100.00
2022-08-14T05:04:32.266Z,100.00
2022-08-14T05:07:08.402Z,100.00
2022-08-14T05:09:48.061Z,100.00
2022-08-14T05:13:11.675Z,100.00
2022-08-14T05:15:12.000Z,100.00
2022-08-14T05:18:03.750Z,100.00
2022-08-14T05:21:59.714Z,100.00
2022-08-14T05:24:17.498Z,100.00
2022-08-14T05:26:52.164Z,100.00
2022-08-14T05:29:27.498Z,100.00
2022-08-14T05:32:04.466Z,100.00
2022-08-14T05:34:35.955Z,100.00
2022-08-14T05:37:06.701Z,100.00
2022-08-14T05:39:37.981Z,100.00
2022-08-14T05:42:38.325Z,100.00
2022-08-14T05:45:18.817Z,100.00
2022-08-14T05:47:51.482Z,100.00
2022-08-14T05:50:22.509Z,100.00
2022-08-14T05:52:55.247Z,100.00
2022-08-14T05:55:33.172Z,100.00
2022-08-14T05:58:08.843Z,100.00
2022-08-14T06:00:41.870Z,100.00
2022-08-14T06:03:18.592Z,100.00
2022-08-14T06:05:52.026Z,100.00
2022-08-14T06:08:41.252Z,100.00
2022-08-14T06:11:14.893Z,100.00
2022-08-14T06:14:01.942Z,100.00
2022-08-14T06:16:34.690Z,100.00
2022-08-14T06:19:18.426Z,100.00
2022-08-14T06:21:59.173Z,100.00
2022-08-14T06:24:34.997Z,100.00
2022-08-14T06:27:13.695Z,100.00
2022-08-14T06:29:51.881Z,100.00
2022-08-14T06:32:36.733Z,100.00
2022-08-14T06:35:19.835Z,100.00
2022-08-14T06:37:56.859Z,100.00
2022-08-14T06:40:40.334Z,100.00
2022-08-14T06:43:15.207Z,100.00
2022-08-14T06:46:01.236Z,100.00
2022-08-14T06:48:37.544Z,100.00
2022-08-14T06:51:25.197Z,100.00
2022-08-14T06:54:11.870Z,100.00
2022-08-14T06:56:44.154Z,100.00
2022-08-14T06:59:19.915Z,100.00
2022-08-14T07:02:13.340Z,100.00
2022-08-14T07:05:05.385Z,100.00
2022-08-14T07:07:42.708Z,100.00
2022-08-14T07:10:21.516Z,100.00
2022-08-14T07:12:56.652Z,100.00
2022-08-14T07:15:40.001Z,100.00
2022-08-14T07:18:16.978Z,100.00
2022-08-14T07:20:48.540Z,100.00
2022-08-14T07:23:24.592Z,100.00
2022-08-14T07:26:00.453Z,100.00
2022-08-14T07:28:44.167Z,100.00
2022-08-14T07:31:25.640Z,100.00
2022-08-14T07:33:54.620Z,100.00
2022-08-14T07:36:33.234Z,100.00
2022-08-14T07:39:16.379Z,100.00
2022-08-14T07:42:00.249Z,100.00
2022-08-14T07:44:46.271Z,100.00
2022-08-14T07:47:29.066Z,100.00
2022-08-14T07:50:21.584Z,100.00
2022-08-14T07:52:55.330Z,100.00
2022-08-14T07:55:29.436Z,100.00
2022-08-14T07:58:05.884Z,100.00
2022-08-14T08:00:57.839Z,100.00
2022-08-14T08:03:35.467Z,100.00
2022-08-14T08:06:17.373Z,100.00
2022-08-14T08:09:03.149Z,100.00
2022-08-14T08:11:37.833Z,100.00
2022-08-14T08:14:17.602Z,100.00
2022-08-14T08:17:04.145Z,100.00
2022-08-14T08:19:39.946Z,100.00
2022-08-14T08:22:12.139Z,100.00
2022-08-14T08:24:52.805Z,100.00
2022-08-14T08:27:26.793Z,100.00
2022-08-14T08:30:21.365Z,100.00
2022-08-14T08:32:52.322Z,100.00
2022-08-14T08:35:46.326Z,100.00
2022-08-14T08:39:18.457Z,100.00
2022-08-14T08:41:18.303Z,100.00
2022-08-14T08:43:48.421Z,100.00
2022-08-14T08:46:32.219Z,100.00
2022-08-14T08:49:21.349Z,100.00
2022-08-14T08:51:54.209Z,100.00
2022-08-14T08:54:31.106Z,100.00
2022-08-14T08:57:18.374Z,100.00
2022-08-14T08:59:58.820Z,100.00
2022-08-14T09:05:18.982Z,100.00
2022-08-14T09:08:00.275Z,100.00
2022-08-14T09:10:30.955Z,100.00
2022-08-14T09:13:13.066Z,100.00
2022-08-14T09:15:52.590Z,100.00
2022-08-14T09:18:30.209Z,100.00
2022-08-14T09:21:07.164Z,100.00
2022-08-14T09:24:26.228Z,100.00
2022-08-14T10:06:47.722Z,99.66
2022-08-14T10:09:18.568Z,96.59
2022-08-14T10:12:04.537Z,100.00
2022-08-14T10:14:43.166Z,89.54
2022-08-14T10:17:31.748Z,98.07
2022-08-14T10:20:39.732Z,90.66
2022-08-14T10:23:26.061Z,78.23
2022-08-14T10:26:06.949Z,74.74
2022-08-14T10:29:17.911Z,80.24
2022-08-14T10:31:47.560Z,78.88
2022-08-14T10:34:33.460Z,78.03
2022-08-14T10:37:23.661Z,59.62
2022-08-14T10:40:37.385Z,56.82
2022-08-14T10:43:02.420Z,61.83
2022-08-14T10:45:46.189Z,70.25
2022-08-14T10:48:37.055Z,55.52
2022-08-14T10:51:18.623Z,56.64
2022-08-14T10:53:59.587Z,52.96
2022-08-14T10:56:43.038Z,52.95
2022-08-14T10:59:21.728Z,57.53
2022-08-14T11:01:51.316Z,56.11
2022-08-14T11:04:31.243Z,54.49
2022-08-14T11:07:07.557Z,71.66
2022-08-14T11:09:36.562Z,68.39
2022-08-14T11:12:34.926Z,67.00
2022-08-14T11:15:12.327Z,60.39
2022-08-14T11:17:45.907Z,49.11
2022-08-14T11:20:20.827Z,51.23
2022-08-14T11:23:00.303Z,47.72
2022-08-14T11:25:36.918Z,48.57
2022-08-14T11:28:19.649Z,53.36
2022-08-14T11:31:14.028Z,50.76
2022-08-14T11:33:44.027Z,63.24
2022-08-14T11:36:19.116Z,63.09
2022-08-14T11:38:50.573Z,59.32
2022-08-14T11:41:26.316Z,52.12
2022-08-14T11:43:59.809Z,48.73
2022-08-14T11:46:37.790Z,50.41
2022-08-14T11:49:08.100Z,52.94
2022-08-14T11:51:56.618Z,56.08
2022-08-14T11:54:33.598Z,53.01
2022-08-14T11:57:02.459Z,52.33
2022-08-14T11:59:38.533Z,53.33
2022-08-14T12:03:00.601Z,45.37
2022-08-14T12:05:23.323Z,43.93
2022-08-14T12:07:59.374Z,40.76
2022-08-14T12:10:42.954Z,40.11
2022-08-14T12:13:14.234Z,41.02
2022-08-14T12:16:11.253Z,39.47
2022-08-14T12:18:58.706Z,42.48
2022-08-14T12:21:32.296Z,41.77
2022-08-14T12:24:05.160Z,42.00
2022-08-14T12:26:41.518Z,41.78
2022-08-14T12:29:27.459Z,39.23
2022-08-14T12:32:08.779Z,38.53
2022-08-14T12:34:45.128Z,39.11
2022-08-14T12:37:19.840Z,38.61
2022-08-14T12:39:52.493Z,37.95
2022-08-14T12:42:34.535Z,36.82
2022-08-14T12:45:05.660Z,36.87
2022-08-14T12:47:35.679Z,37.78
2022-08-14T12:50:12.925Z,36.42
2022-08-14T12:53:01.884Z,35.71
2022-08-14T12:56:18.483Z,38.30
2022-08-14T12:58:51.863Z,39.71
2022-08-14T13:01:28.136Z,36.73
2022-08-14T13:04:20.595Z,34.86
2022-08-14T13:06:59.251Z,34.38
2022-08-14T13:09:36.513Z,34.66
2022-08-14T13:12:32.576Z,34.95
2022-08-14T13:15:09.537Z,34.04
2022-08-14T13:17:45.593Z,35.50
2022-08-14T13:20:23.276Z,32.70
2022-08-14T13:22:56.173Z,32.96
2022-08-14T13:25:32.800Z,32.97
2022-08-14T13:28:30.308Z,32.90
2022-08-14T13:31:11.438Z,33.29
2022-08-14T13:33:43.727Z,32.53
2022-08-14T13:36:24.052Z,31.00
2022-08-14T13:38:59.445Z,31.75
2022-08-14T13:41:36.765Z,29.07
2022-08-14T13:44:13.744Z,26.21
2022-08-14T13:46:51.893Z,24.57
2022-08-14T13:49:23.918Z,23.69
2022-08-14T13:51:59.503Z,25.28
2022-08-14T13:54:35.600Z,23.12
2022-08-14T13:57:09.271Z,23.55
2022-08-14T13:59:41.299Z,24.14
2022-08-14T14:02:12.440Z,23.84
2022-08-14T14:05:05.225Z,23.80
2022-08-14T14:07:39.289Z,24.43
2022-08-14T14:10:25.185Z,23.44
2022-08-14T14:13:08.209Z,23.81
2022-08-14T14:15:57.924Z,23.93
